EAA021P LHDC-LTBA
Flight info
| Callsign | EAA021P |
|---|---|
| Flight time | N/A |
| Altitude | 35000 |
| Route | NARKA DCT EMPOS DCT BULEN L742 RIXEN UL620 GINLI |
| Aircraft | B738/M-SDE2E3FGHIRWXY/LB1 |
Departure
| Time | N/A |
|---|---|
| Airport | Debrecen International Airport (LHDC) |
Arrival
| Time | 2026-04-25 21:15 |
|---|---|
| Airport | İstanbul Atatürk Airport (LTBA) |
| Time | Latitude | Longitude | Altitude | Speed | Heading |
|---|---|---|---|---|---|
| 2026-04-25 20:01 | 46.97612 | 22.21985 | 21273 ft | 348 kts | 141° |
| 2026-04-25 20:02 | 46.95775 | 22.24397 | 21827 ft | 351 kts | 141° |
| 2026-04-25 20:02 | 46.93946 | 22.26795 | 22365 ft | 355 kts | 141° |
| 2026-04-25 20:02 | 46.92114 | 22.29196 | 22902 ft | 357 kts | 141° |
| 2026-04-25 20:02 | 46.90241 | 22.31649 | 23423 ft | 361 kts | 141° |
| 2026-04-25 20:03 | 46.88362 | 22.34105 | 23875 ft | 364 kts | 141° |
| 2026-04-25 20:03 | 46.86467 | 22.36581 | 24325 ft | 367 kts | 141° |
| 2026-04-25 20:03 | 46.84562 | 22.39068 | 24774 ft | 369 kts | 142° |
| 2026-04-25 20:03 | 46.82638 | 22.41577 | 25219 ft | 371 kts | 142° |
| 2026-04-25 20:04 | 46.80708 | 22.44091 | 25667 ft | 373 kts | 142° |
| 2026-04-25 20:04 | 46.78769 | 22.46614 | 26097 ft | 376 kts | 142° |
| 2026-04-25 20:04 | 46.76806 | 22.49166 | 26558 ft | 377 kts | 142° |
| 2026-04-25 20:04 | 46.74851 | 22.51707 | 27111 ft | 375 kts | 142° |
| 2026-04-25 20:05 | 46.72909 | 22.54229 | 27641 ft | 374 kts | 142° |
| 2026-04-25 20:05 | 46.70963 | 22.56751 | 28142 ft | 374 kts | 142° |
| 2026-04-25 20:05 | 46.69027 | 22.59258 | 28621 ft | 373 kts | 142° |
| 2026-04-25 20:05 | 46.67107 | 22.61741 | 29131 ft | 372 kts | 143° |
| 2026-04-25 20:06 | 46.65174 | 22.64239 | 29596 ft | 372 kts | 143° |
| 2026-04-25 20:06 | 46.63237 | 22.66738 | 30069 ft | 371 kts | 143° |
| 2026-04-25 20:06 | 46.61308 | 22.69226 | 30448 ft | 371 kts | 143° |
| 2026-04-25 20:06 | 46.59366 | 22.71728 | 30761 ft | 372 kts | 143° |
| 2026-04-25 20:07 | 46.57419 | 22.74232 | 31082 ft | 372 kts | 143° |
| 2026-04-25 20:07 | 46.55482 | 22.76722 | 31413 ft | 372 kts | 143° |
| 2026-04-25 20:07 | 46.53542 | 22.79213 | 31725 ft | 372 kts | 142° |
| 2026-04-25 20:07 | 46.51605 | 22.81699 | 32006 ft | 373 kts | 142° |
| 2026-04-25 20:08 | 46.49656 | 22.84197 | 32272 ft | 374 kts | 142° |
| 2026-04-25 20:08 | 46.47706 | 22.86693 | 32559 ft | 374 kts | 142° |
| 2026-04-25 20:08 | 46.45755 | 22.89189 | 32798 ft | 375 kts | 142° |
| 2026-04-25 20:08 | 46.43792 | 22.91697 | 33007 ft | 377 kts | 142° |
| 2026-04-25 20:09 | 46.41814 | 22.94222 | 33166 ft | 380 kts | 142° |
| 2026-04-25 20:09 | 46.39818 | 22.96767 | 33312 ft | 384 kts | 142° |
| 2026-04-25 20:09 | 46.37800 | 22.99337 | 33487 ft | 387 kts | 142° |
| 2026-04-25 20:09 | 46.35779 | 23.01910 | 33679 ft | 389 kts | 142° |
| 2026-04-25 20:10 | 46.33736 | 23.04508 | 33897 ft | 391 kts | 142° |
| 2026-04-25 20:10 | 46.31687 | 23.07113 | 34108 ft | 392 kts | 142° |
| 2026-04-25 20:10 | 46.29637 | 23.09714 | 34311 ft | 393 kts | 142° |
| 2026-04-25 20:10 | 46.27613 | 23.12281 | 34504 ft | 394 kts | 142° |
| 2026-04-25 20:11 | 46.25548 | 23.14896 | 34686 ft | 395 kts | 142° |
| 2026-04-25 20:11 | 46.23478 | 23.17516 | 34862 ft | 396 kts | 142° |
| 2026-04-25 20:11 | 46.21395 | 23.20146 | 35025 ft | 398 kts | 142° |
| 2026-04-25 20:11 | 46.19311 | 23.22778 | 35174 ft | 400 kts | 142° |
| 2026-04-25 20:12 | 46.17205 | 23.25434 | 35348 ft | 402 kts | 142° |
| 2026-04-25 20:12 | 46.15094 | 23.28093 | 35533 ft | 403 kts | 142° |
| 2026-04-25 20:12 | 46.12971 | 23.30765 | 35738 ft | 404 kts | 142° |
| 2026-04-25 20:12 | 46.11564 | 23.32534 | 35859 ft | 404 kts | 142° |
| 2026-04-25 20:13 | 46.08722 | 23.36105 | 36111 ft | 406 kts | 142° |
| 2026-04-25 20:13 | 46.06595 | 23.38773 | 36265 ft | 407 kts | 142° |
| 2026-04-25 20:13 | 46.04455 | 23.41454 | 36408 ft | 408 kts | 142° |
| 2026-04-25 20:13 | 46.02309 | 23.44139 | 36415 ft | 415 kts | 142° |
| 2026-04-25 20:14 | 46.00100 | 23.46896 | 35963 ft | 434 kts | 142° |
| 2026-04-25 20:14 | 45.97774 | 23.49795 | 35519 ft | 451 kts | 141° |
| 2026-04-25 20:14 | 45.95374 | 23.52789 | 35094 ft | 464 kts | 141° |
| 2026-04-25 20:14 | 45.92916 | 23.55854 | 35048 ft | 471 kts | 141° |
| 2026-04-25 20:15 | 45.87890 | 23.62113 | 35004 ft | 484 kts | 141° |
| 2026-04-25 20:15 | 45.82731 | 23.68513 | 35002 ft | 495 kts | 141° |
| 2026-04-25 20:16 | 45.77408 | 23.74959 | 34988 ft | 504 kts | 144° |
| 2026-04-25 20:16 | 45.71806 | 23.81005 | 34972 ft | 503 kts | 146° |
| 2026-04-25 20:17 | 45.66183 | 23.86879 | 34978 ft | 497 kts | 146° |
| 2026-04-25 20:17 | 45.60646 | 23.92691 | 34975 ft | 496 kts | 146° |
| 2026-04-25 20:18 | 45.55118 | 23.98531 | 34992 ft | 494 kts | 146° |
| 2026-04-25 20:18 | 45.49599 | 24.04366 | 35003 ft | 493 kts | 145° |
| 2026-04-25 20:19 | 45.44080 | 24.10187 | 35006 ft | 494 kts | 145° |
| 2026-04-25 20:19 | 45.38548 | 24.16004 | 35017 ft | 495 kts | 145° |
| 2026-04-25 20:20 | 45.33006 | 24.21817 | 35016 ft | 496 kts | 145° |
| 2026-04-25 20:20 | 45.27437 | 24.27643 | 35007 ft | 497 kts | 145° |
| 2026-04-25 20:21 | 45.21862 | 24.33461 | 35002 ft | 498 kts | 145° |
| 2026-04-25 20:21 | 45.16271 | 24.39281 | 35004 ft | 498 kts | 145° |
| 2026-04-25 20:22 | 45.12563 | 24.43133 | 34997 ft | 499 kts | 145° |
| 2026-04-25 20:22 | 45.05094 | 24.50873 | 34993 ft | 498 kts | 145° |
| 2026-04-25 20:23 | 44.99496 | 24.56657 | 34984 ft | 498 kts | 145° |
| 2026-04-25 20:23 | 44.93935 | 24.62389 | 34977 ft | 498 kts | 145° |
| 2026-04-25 20:24 | 44.88343 | 24.68138 | 34978 ft | 497 kts | 145° |
| 2026-04-25 20:24 | 44.82743 | 24.73882 | 34972 ft | 496 kts | 145° |
| 2026-04-25 20:25 | 44.77165 | 24.79589 | 34970 ft | 496 kts | 145° |
| 2026-04-25 20:25 | 44.71583 | 24.85286 | 34970 ft | 495 kts | 145° |
| 2026-04-25 20:26 | 44.66001 | 24.90969 | 34973 ft | 495 kts | 145° |
| 2026-04-25 20:26 | 44.60456 | 24.96601 | 34973 ft | 494 kts | 145° |
| 2026-04-25 20:27 | 44.54879 | 25.02251 | 34970 ft | 494 kts | 145° |
| 2026-04-25 20:27 | 44.49300 | 25.07890 | 34969 ft | 494 kts | 145° |
| 2026-04-25 20:28 | 44.43715 | 25.13522 | 34970 ft | 494 kts | 145° |
| 2026-04-25 20:28 | 44.38139 | 25.19131 | 34971 ft | 494 kts | 145° |
| 2026-04-25 20:29 | 44.32550 | 25.24739 | 34973 ft | 494 kts | 145° |
| 2026-04-25 20:29 | 44.26964 | 25.30332 | 34973 ft | 494 kts | 145° |
| 2026-04-25 20:30 | 44.21414 | 25.35874 | 34967 ft | 494 kts | 145° |
| 2026-04-25 20:30 | 44.15832 | 25.41435 | 34965 ft | 493 kts | 145° |
| 2026-04-25 20:31 | 44.10253 | 25.46980 | 34971 ft | 493 kts | 144° |
| 2026-04-25 20:31 | 44.04662 | 25.52524 | 34971 ft | 492 kts | 144° |
| 2026-04-25 20:32 | 43.99079 | 25.58046 | 34972 ft | 492 kts | 144° |
| 2026-04-25 20:32 | 43.93504 | 25.63546 | 34975 ft | 492 kts | 144° |
| 2026-04-25 20:33 | 43.87919 | 25.69043 | 34973 ft | 491 kts | 144° |
| 2026-04-25 20:33 | 43.84216 | 25.72680 | 34976 ft | 491 kts | 144° |
| 2026-04-25 20:34 | 43.76755 | 25.79994 | 34976 ft | 491 kts | 144° |
| 2026-04-25 20:34 | 43.71743 | 25.86266 | 34993 ft | 489 kts | 131° |
| 2026-04-25 20:35 | 43.67165 | 25.93236 | 34975 ft | 489 kts | 130° |
| 2026-04-25 20:35 | 43.62583 | 26.00193 | 34987 ft | 489 kts | 131° |
| 2026-04-25 20:36 | 43.57965 | 26.07082 | 34990 ft | 488 kts | 131° |
| 2026-04-25 20:36 | 43.53332 | 26.13928 | 34987 ft | 488 kts | 131° |
| 2026-04-25 20:37 | 43.48692 | 26.20766 | 34993 ft | 487 kts | 131° |
| 2026-04-25 20:37 | 43.44095 | 26.27529 | 34989 ft | 487 kts | 131° |
| 2026-04-25 20:38 | 43.39466 | 26.34326 | 34990 ft | 486 kts | 131° |
| 2026-04-25 20:38 | 43.34836 | 26.41108 | 34993 ft | 486 kts | 131° |
| 2026-04-25 20:39 | 43.30205 | 26.47874 | 34994 ft | 485 kts | 131° |
| 2026-04-25 20:39 | 43.27143 | 26.52337 | 34984 ft | 485 kts | 131° |
| 2026-04-25 20:40 | 43.21739 | 26.60198 | 34995 ft | 484 kts | 131° |
| 2026-04-25 20:40 | 43.16356 | 26.67981 | 34988 ft | 483 kts | 132° |
| 2026-04-25 20:41 | 43.11684 | 26.74607 | 34983 ft | 483 kts | 132° |
| 2026-04-25 20:41 | 43.07802 | 26.80094 | 34995 ft | 482 kts | 132° |
| 2026-04-25 20:42 | 43.03143 | 26.86685 | 34987 ft | 481 kts | 132° |
| 2026-04-25 20:42 | 42.98601 | 26.93389 | 34995 ft | 480 kts | 129° |
| 2026-04-25 20:43 | 42.94189 | 27.00223 | 34993 ft | 479 kts | 129° |
| 2026-04-25 20:43 | 42.89768 | 27.07023 | 34979 ft | 479 kts | 130° |
| 2026-04-25 20:44 | 42.85324 | 27.13777 | 34993 ft | 477 kts | 130° |
| 2026-04-25 20:44 | 42.80878 | 27.20499 | 34993 ft | 477 kts | 130° |
| 2026-04-25 20:45 | 42.76430 | 27.27209 | 35002 ft | 477 kts | 130° |
| 2026-04-25 20:45 | 42.71985 | 27.33902 | 34997 ft | 476 kts | 130° |
| 2026-04-25 20:46 | 42.67563 | 27.40543 | 35006 ft | 476 kts | 130° |
| 2026-04-25 20:46 | 42.63113 | 27.47209 | 35005 ft | 476 kts | 130° |
| 2026-04-25 20:47 | 42.58712 | 27.53923 | 35004 ft | 474 kts | 126° |
| 2026-04-25 20:47 | 42.55211 | 27.61447 | 35006 ft | 471 kts | 117° |
| 2026-04-25 20:48 | 42.51923 | 27.69139 | 35006 ft | 471 kts | 118° |
| 2026-04-25 20:48 | 42.48585 | 27.76781 | 35010 ft | 470 kts | 118° |
| 2026-04-25 20:49 | 42.45221 | 27.84364 | 35013 ft | 470 kts | 118° |
| 2026-04-25 20:49 | 42.41841 | 27.91955 | 35014 ft | 470 kts | 118° |
| 2026-04-25 20:50 | 42.38514 | 27.99558 | 35018 ft | 469 kts | 117° |
| 2026-04-25 20:50 | 42.35484 | 28.07302 | 35016 ft | 468 kts | 115° |
| 2026-04-25 20:51 | 42.32498 | 28.15121 | 35018 ft | 468 kts | 115° |
| 2026-04-25 20:51 | 42.29476 | 28.22910 | 35026 ft | 468 kts | 116° |
| 2026-04-25 20:52 | 42.26938 | 28.29376 | 35019 ft | 468 kts | 116° |
| 2026-04-25 20:52 | 42.23364 | 28.38442 | 35028 ft | 468 kts | 116° |
| 2026-04-25 20:53 | 42.20300 | 28.46193 | 35025 ft | 468 kts | 116° |
| 2026-04-25 20:53 | 42.17233 | 28.53933 | 35028 ft | 468 kts | 116° |
| 2026-04-25 20:54 | 42.14174 | 28.61630 | 35026 ft | 468 kts | 116° |
| 2026-04-25 20:54 | 42.11092 | 28.69349 | 35026 ft | 468 kts | 119° |
| 2026-04-25 20:55 | 42.09074 | 28.72785 | 35025 ft | 469 kts | 137° |
| 2026-04-25 20:55 | 42.06394 | 28.75266 | 35032 ft | 469 kts | 153° |
| 2026-04-25 20:55 | 42.03321 | 28.76747 | 35028 ft | 468 kts | 169° |
| 2026-04-25 20:55 | 42.00116 | 28.77145 | 34797 ft | 459 kts | 178° |
| 2026-04-25 20:56 | 41.96930 | 28.77197 | 34407 ft | 452 kts | 180° |
| 2026-04-25 20:56 | 41.93828 | 28.77201 | 34359 ft | 439 kts | 179° |
| 2026-04-25 20:56 | 41.90805 | 28.77257 | 33823 ft | 435 kts | 178° |
| 2026-04-25 20:56 | 41.87691 | 28.77365 | 32271 ft | 458 kts | 178° |
| 2026-04-25 20:57 | 41.84496 | 28.77508 | 30955 ft | 473 kts | 178° |
| 2026-04-25 20:57 | 41.81120 | 28.77664 | 29560 ft | 485 kts | 178° |
| 2026-04-25 20:57 | 41.77738 | 28.77602 | 28042 ft | 486 kts | 188° |
| 2026-04-25 20:57 | 41.74497 | 28.76425 | 26639 ft | 481 kts | 204° |
| 2026-04-25 20:58 | 41.71620 | 28.74293 | 25343 ft | 476 kts | 212° |
| 2026-04-25 20:58 | 41.68806 | 28.71988 | 24099 ft | 472 kts | 212° |
| 2026-04-25 20:58 | 41.66060 | 28.69704 | 23393 ft | 456 kts | 212° |
| 2026-04-25 20:58 | 41.63453 | 28.67518 | 23189 ft | 429 kts | 212° |
| 2026-04-25 20:59 | 41.60967 | 28.65429 | 22375 ft | 418 kts | 212° |
| 2026-04-25 20:59 | 41.58514 | 28.63367 | 21463 ft | 413 kts | 212° |
| 2026-04-25 20:59 | 41.56102 | 28.61343 | 20587 ft | 408 kts | 212° |
| 2026-04-25 20:59 | 41.53715 | 28.59344 | 19731 ft | 403 kts | 212° |
| 2026-04-25 21:00 | 41.51348 | 28.57365 | 18902 ft | 398 kts | 212° |
| 2026-04-25 21:00 | 41.50559 | 28.56705 | 18622 ft | 397 kts | 212° |
| 2026-04-25 21:00 | 41.44405 | 28.51574 | 16245 ft | 385 kts | 212° |
| 2026-04-25 21:01 | 41.42139 | 28.49689 | 15374 ft | 381 kts | 212° |
| 2026-04-25 21:01 | 41.39902 | 28.47829 | 14538 ft | 377 kts | 212° |
| 2026-04-25 21:01 | 41.37720 | 28.46016 | 13717 ft | 373 kts | 212° |
| 2026-04-25 21:01 | 41.35504 | 28.44176 | 12785 ft | 368 kts | 212° |
| 2026-04-25 21:02 | 41.33343 | 28.42384 | 11915 ft | 364 kts | 212° |
| 2026-04-25 21:02 | 41.31136 | 28.40856 | 11050 ft | 361 kts | 201° |
| 2026-04-25 21:02 | 41.28738 | 28.39980 | 10419 ft | 352 kts | 193° |
| 2026-04-25 21:02 | 41.26383 | 28.39306 | 9890 ft | 340 kts | 193° |
| 2026-04-25 21:03 | 41.24091 | 28.38647 | 9171 ft | 334 kts | 193° |
| 2026-04-25 21:03 | 41.21828 | 28.37987 | 8475 ft | 329 kts | 193° |
| 2026-04-25 21:03 | 41.19615 | 28.37332 | 7800 ft | 324 kts | 193° |
| 2026-04-25 21:03 | 41.17427 | 28.36679 | 7133 ft | 320 kts | 193° |
| 2026-04-25 21:04 | 41.15270 | 28.36030 | 6482 ft | 316 kts | 193° |
| 2026-04-25 21:04 | 41.13161 | 28.35388 | 5814 ft | 313 kts | 193° |
| 2026-04-25 21:04 | 41.11055 | 28.34744 | 5410 ft | 302 kts | 193° |
| 2026-04-25 21:04 | 41.09073 | 28.34141 | 5254 ft | 285 kts | 192° |
| 2026-04-25 21:05 | 41.07159 | 28.33561 | 4777 ft | 281 kts | 192° |
| 2026-04-25 21:05 | 41.05259 | 28.32987 | 4264 ft | 279 kts | 192° |
| 2026-04-25 21:05 | 41.03399 | 28.32426 | 4046 ft | 266 kts | 192° |
| 2026-04-25 21:05 | 41.01645 | 28.31896 | 3990 ft | 252 kts | 192° |
| 2026-04-25 21:06 | 40.99943 | 28.31383 | 4003 ft | 251 kts | 192° |
| 2026-04-25 21:06 | 40.98240 | 28.30872 | 4004 ft | 251 kts | 191° |
| 2026-04-25 21:06 | 40.96532 | 28.30985 | 3984 ft | 246 kts | 155° |
| 2026-04-25 21:06 | 40.95609 | 28.31807 | 3993 ft | 242 kts | 133° |
| 2026-04-25 21:07 | 40.94084 | 28.34051 | 4005 ft | 248 kts | 131° |
| 2026-04-25 21:07 | 40.92927 | 28.35745 | 3998 ft | 247 kts | 131° |
| 2026-04-25 21:07 | 40.91770 | 28.37429 | 3989 ft | 247 kts | 131° |
| 2026-04-25 21:07 | 40.90613 | 28.39101 | 3989 ft | 246 kts | 131° |
| 2026-04-25 21:08 | 40.89450 | 28.40774 | 3988 ft | 246 kts | 131° |
| 2026-04-25 21:08 | 40.88303 | 28.42414 | 3993 ft | 246 kts | 131° |
| 2026-04-25 21:08 | 40.87138 | 28.44078 | 3989 ft | 247 kts | 131° |
| 2026-04-25 21:08 | 40.85972 | 28.45740 | 3991 ft | 247 kts | 131° |
| 2026-04-25 21:09 | 40.84105 | 28.49433 | 4002 ft | 243 kts | 96° |
| 2026-04-25 21:09 | 40.84217 | 28.51596 | 4000 ft | 230 kts | 76° |
| 2026-04-25 21:09 | 40.84644 | 28.53584 | 4005 ft | 220 kts | 72° |
| 2026-04-25 21:10 | 40.85095 | 28.55502 | 4011 ft | 219 kts | 72° |
| 2026-04-25 21:10 | 40.85579 | 28.57427 | 4002 ft | 221 kts | 65° |
| 2026-04-25 21:10 | 40.86333 | 28.59187 | 4003 ft | 220 kts | 57° |
| 2026-04-25 21:10 | 40.87158 | 28.60894 | 3993 ft | 220 kts | 57° |
| 2026-04-25 21:11 | 40.87980 | 28.62605 | 3987 ft | 220 kts | 57° |
| 2026-04-25 21:11 | 40.88756 | 28.64233 | 3955 ft | 201 kts | 57° |
| 2026-04-25 21:11 | 40.89458 | 28.65720 | 3851 ft | 185 kts | 57° |
| 2026-04-25 21:11 | 40.90140 | 28.67171 | 3549 ft | 187 kts | 57° |
| 2026-04-25 21:12 | 40.90827 | 28.68639 | 3250 ft | 187 kts | 57° |
| 2026-04-25 21:12 | 40.91509 | 28.70101 | 2971 ft | 185 kts | 58° |
| 2026-04-25 21:12 | 40.92176 | 28.71534 | 2755 ft | 178 kts | 58° |
| 2026-04-25 21:12 | 40.92599 | 28.72444 | 2584 ft | 178 kts | 58° |
| 2026-04-25 21:13 | 40.93468 | 28.74312 | 2212 ft | 174 kts | 58° |
| 2026-04-25 21:13 | 40.94076 | 28.75619 | 1904 ft | 161 kts | 58° |
| 2026-04-25 21:13 | 40.94640 | 28.76834 | 1647 ft | 150 kts | 58° |
| 2026-04-25 21:13 | 40.95183 | 28.78011 | 1448 ft | 153 kts | 59° |
| 2026-04-25 21:14 | 40.95746 | 28.79214 | 1005 ft | 155 kts | 58° |
| 2026-04-25 21:14 | 40.96302 | 28.80415 | 516 ft | 150 kts | 58° |
| 2026-04-25 21:14 | 40.96826 | 28.81573 | 201 ft | 145 kts | 57° |
| 2026-04-25 21:14 | 40.97338 | 28.82654 | 101 ft | 112 kts | 57° |
| 2026-04-25 21:15 | 40.97641 | 28.83306 | 100 ft | 78 kts | 57° |
| 2026-04-25 21:15 | 40.97729 | 28.83609 | 98 ft | 21 kts | 135° |
| 2026-04-25 21:15 | 40.97608 | 28.83579 | 98 ft | 29 kts | 214° |
| 2026-04-25 21:15 | 40.97469 | 28.83371 | 98 ft | 32 kts | 239° |
| 2026-04-25 21:16 | 40.97348 | 28.83229 | 99 ft | 30 kts | 178° |
| 2026-04-25 21:16 | 40.97168 | 28.83233 | 99 ft | 25 kts | 180° |
| 2026-04-25 21:16 | 40.97143 | 28.83233 | 99 ft | 0 kts | 180° |
| 2026-04-25 21:16 | 40.97137 | 28.83232 | 99 ft | 1 kts | 189° |
| 2026-04-25 21:17 | 40.97136 | 28.83232 | 99 ft | 0 kts | 189° |
| 2026-04-25 21:17 | 40.97132 | 28.83231 | 99 ft | 1 kts | 189° |
| 2026-04-25 21:18 | 40.97125 | 28.83227 | 99 ft | 1 kts | 212° |
| 2026-04-25 21:18 | 40.96951 | 28.82927 | 99 ft | 62 kts | 251° |
| 2026-04-25 21:18 | 40.96915 | 28.82673 | 99 ft | 0 kts | 258° |
| 2026-04-25 21:18 | 40.96899 | 28.82639 | 99 ft | 13 kts | 223° |
| 2026-04-25 21:19 | 40.96827 | 28.82642 | 100 ft | 0 kts | 126° |